sensor_id;sensor_type;location;lat;lon;timestamp;pressure;altitude;pressure_sealevel;temperature
67758;BMP180;54562;47.620;18.786;2022-08-20T05:21:59;98039.40;;;20.36
67758;BMP180;54562;47.620;18.786;2022-08-20T05:25:09;98035.80;;;20.30
67758;BMP180;54562;47.620;18.786;2022-08-20T05:28:21;98034.60;;;20.16
67758;BMP180;54562;47.620;18.786;2022-08-20T05:31:30;98027.80;;;20.10
67758;BMP180;54562;47.620;18.786;2022-08-20T05:34:39;98034.00;;;20.00
67758;BMP180;54562;47.620;18.786;2022-08-20T05:37:47;98027.00;;;19.90
67758;BMP180;54562;47.620;18.786;2022-08-20T05:40:55;98036.00;;;19.84
67758;BMP180;54562;47.620;18.786;2022-08-20T05:44:04;98044.20;;;19.80
67758;BMP180;54562;47.620;18.786;2022-08-20T05:47:15;98058.20;;;19.80
67758;BMP180;54562;47.620;18.786;2022-08-20T05:50:27;98057.00;;;19.80
67758;BMP180;54562;47.620;18.786;2022-08-20T05:53:35;98051.40;;;19.80
67758;BMP180;54562;47.620;18.786;2022-08-20T05:56:44;98053.80;;;19.88
67758;BMP180;54562;47.620;18.786;2022-08-20T05:59:52;98038.20;;;19.90
67758;BMP180;54562;47.620;18.786;2022-08-20T06:03:02;98013.40;;;19.90
67758;BMP180;54562;47.620;18.786;2022-08-20T06:06:27;98000.20;;;20.00
67758;BMP180;54562;47.620;18.786;2022-08-20T06:09:52;98016.60;;;20.00
67758;BMP180;54562;47.620;18.786;2022-08-20T06:13:00;98032.00;;;20.04
67758;BMP180;54562;47.620;18.786;2022-08-20T06:16:08;98028.00;;;20.10
67758;BMP180;54562;47.620;18.786;2022-08-20T06:19:17;98025.00;;;20.10
67758;BMP180;54562;47.620;18.786;2022-08-20T06:22:31;98025.20;;;20.16
67758;BMP180;54562;47.620;18.786;2022-08-20T06:25:40;98029.40;;;20.20
67758;BMP180;54562;47.620;18.786;2022-08-20T06:28:48;98032.80;;;20.20
67758;BMP180;54562;47.620;18.786;2022-08-20T06:32:00;98029.80;;;20.24
67758;BMP180;54562;47.620;18.786;2022-08-20T06:35:11;98048.40;;;20.30
67758;BMP180;54562;47.620;18.786;2022-08-20T06:38:25;98053.20;;;20.34
67758;BMP180;54562;47.620;18.786;2022-08-20T06:41:33;98059.80;;;20.40
67758;BMP180;54562;47.620;18.786;2022-08-20T06:44:43;98065.60;;;20.40
67758;BMP180;54562;47.620;18.786;2022-08-20T06:47:58;98089.80;;;20.40
67758;BMP180;54562;47.620;18.786;2022-08-20T06:51:07;98115.60;;;20.40
67758;BMP180;54562;47.620;18.786;2022-08-20T06:54:15;98126.00;;;20.40
67758;BMP180;54562;47.620;18.786;2022-08-20T06:57:24;98119.60;;;20.40
67758;BMP180;54562;47.620;18.786;2022-08-20T07:00:34;98114.00;;;20.40
67758;BMP180;54562;47.620;18.786;2022-08-20T07:03:44;98094.80;;;20.50
67758;BMP180;54562;47.620;18.786;2022-08-20T07:07:01;98078.60;;;20.60
67758;BMP180;54562;47.620;18.786;2022-08-20T07:10:15;98086.20;;;20.66
67758;BMP180;54562;47.620;18.786;2022-08-20T07:13:23;98095.40;;;20.70
67758;BMP180;54562;47.620;18.786;2022-08-20T07:16:32;98107.00;;;20.70
67758;BMP180;54562;47.620;18.786;2022-08-20T07:19:41;98121.60;;;20.70
67758;BMP180;54562;47.620;18.786;2022-08-20T07:22:49;98133.40;;;20.70
67758;BMP180;54562;47.620;18.786;2022-08-20T07:25:58;98131.40;;;20.70
67758;BMP180;54562;47.620;18.786;2022-08-20T07:29:06;98127.80;;;20.70
67758;BMP180;54562;47.620;18.786;2022-08-20T07:32:14;98128.40;;;20.70
67758;BMP180;54562;47.620;18.786;2022-08-20T07:35:45;98130.00;;;20.68
67758;BMP180;54562;47.620;18.786;2022-08-20T07:38:54;98141.00;;;20.60
67758;BMP180;54562;47.620;18.786;2022-08-20T07:42:03;98168.00;;;20.60
67758;BMP180;54562;47.620;18.786;2022-08-20T07:45:15;98181.60;;;20.60
67758;BMP180;54562;47.620;18.786;2022-08-20T07:48:26;98176.00;;;20.60
67758;BMP180;54562;47.620;18.786;2022-08-20T07:51:37;98174.80;;;20.50
67758;BMP180;54562;47.620;18.786;2022-08-20T07:54:45;98176.20;;;20.40
67758;BMP180;54562;47.620;18.786;2022-08-20T07:57:53;98184.00;;;20.40
67758;BMP180;54562;47.620;18.786;2022-08-20T08:01:02;98191.20;;;20.30
67758;BMP180;54562;47.620;18.786;2022-08-20T08:04:10;98194.20;;;20.30
67758;BMP180;54562;47.620;18.786;2022-08-20T08:07:19;98188.40;;;20.30
67758;BMP180;54562;47.620;18.786;2022-08-20T08:10:28;98176.00;;;20.24
67758;BMP180;54562;47.620;18.786;2022-08-20T08:13:39;98175.80;;;20.20
67758;BMP180;54562;47.620;18.786;2022-08-20T08:16:48;98173.20;;;20.20
67758;BMP180;54562;47.620;18.786;2022-08-20T08:19:56;98180.80;;;20.20
67758;BMP180;54562;47.620;18.786;2022-08-20T08:23:05;98184.40;;;20.20
67758;BMP180;54562;47.620;18.786;2022-08-20T08:26:19;98181.40;;;20.20
67758;BMP180;54562;47.620;18.786;2022-08-20T08:29:27;98198.80;;;20.20
67758;BMP180;54562;47.620;18.786;2022-08-20T08:32:37;98224.60;;;20.10
67758;BMP180;54562;47.620;18.786;2022-08-20T08:36:05;98216.80;;;20.10
67758;BMP180;54562;47.620;18.786;2022-08-20T08:39:15;98197.40;;;20.08
67758;BMP180;54562;47.620;18.786;2022-08-20T08:42:33;98172.80;;;20.00
67758;BMP180;54562;47.620;18.786;2022-08-20T08:45:58;98174.40;;;20.00
67758;BMP180;54562;47.620;18.786;2022-08-20T08:49:11;98178.20;;;20.00
67758;BMP180;54562;47.620;18.786;2022-08-20T08:52:24;98193.60;;;19.90
67758;BMP180;54562;47.620;18.786;2022-08-20T08:55:33;98204.20;;;19.90
67758;BMP180;54562;47.620;18.786;2022-08-20T08:58:42;98215.80;;;19.80
67758;BMP180;54562;47.620;18.786;2022-08-20T09:01:54;98209.40;;;19.80
67758;BMP180;54562;47.620;18.786;2022-08-20T09:05:13;98203.60;;;19.70
67758;BMP180;54562;47.620;18.786;2022-08-20T09:08:28;98188.60;;;19.70
67758;BMP180;54562;47.620;18.786;2022-08-20T09:11:50;98158.80;;;19.70
67758;BMP180;54562;47.620;18.786;2022-08-20T09:14:59;98145.00;;;19.64
67758;BMP180;54562;47.620;18.786;2022-08-20T09:18:07;98129.80;;;19.60
67758;BMP180;54562;47.620;18.786;2022-08-20T09:21:15;98131.00;;;19.60
67758;BMP180;54562;47.620;18.786;2022-08-20T09:24:24;98133.80;;;19.60
67758;BMP180;54562;47.620;18.786;2022-08-20T09:27:32;98154.80;;;19.50
67758;BMP180;54562;47.620;18.786;2022-08-20T09:30:41;98167.00;;;19.50
67758;BMP180;54562;47.620;18.786;2022-08-20T09:33:52;98169.40;;;19.50
67758;BMP180;54562;47.620;18.786;2022-08-20T09:37:00;98161.60;;;19.50
67758;BMP180;54562;47.620;18.786;2022-08-20T09:40:11;98159.40;;;19.50
67758;BMP180;54562;47.620;18.786;2022-08-20T09:43:28;98155.00;;;19.50
67758;BMP180;54562;47.620;18.786;2022-08-20T09:46:36;98157.60;;;19.50
67758;BMP180;54562;47.620;18.786;2022-08-20T09:49:45;98166.60;;;19.44
67758;BMP180;54562;47.620;18.786;2022-08-20T09:52:55;98183.00;;;19.40
67758;BMP180;54562;47.620;18.786;2022-08-20T09:56:06;98187.00;;;19.24
67758;BMP180;54562;47.620;18.786;2022-08-20T09:59:16;98183.80;;;19.20
67758;BMP180;54562;47.620;18.786;2022-08-20T10:02:24;98189.60;;;19.10
67758;BMP180;54562;47.620;18.786;2022-08-20T10:05:32;98186.60;;;19.10
67758;BMP180;54562;47.620;18.786;2022-08-20T10:08:40;98181.20;;;19.00
67758;BMP180;54562;47.620;18.786;2022-08-20T10:11:48;98177.00;;;18.90
67758;BMP180;54562;47.620;18.786;2022-08-20T10:14:56;98175.00;;;18.88
67758;BMP180;54562;47.620;18.786;2022-08-20T10:18:06;98160.40;;;18.80
67758;BMP180;54562;47.620;18.786;2022-08-20T10:21:18;98141.40;;;18.80
67758;BMP180;54562;47.620;18.786;2022-08-20T10:24:27;98128.60;;;18.80
67758;BMP180;54562;47.620;18.786;2022-08-20T10:27:35;98111.40;;;18.80
67758;BMP180;54562;47.620;18.786;2022-08-20T10:30:46;98096.00;;;18.80
67758;BMP180;54562;47.620;18.786;2022-08-20T10:33:55;98081.20;;;18.88
67758;BMP180;54562;47.620;18.786;2022-08-20T10:51:39;98056.00;;;19.54
67758;BMP180;54562;47.620;18.786;2022-08-20T10:54:48;98076.60;;;19.70
67758;BMP180;54562;47.620;18.786;2022-08-20T10:57:55;98109.80;;;19.70
67758;BMP180;54562;47.620;18.786;2022-08-20T11:01:04;98142.00;;;19.84
67758;BMP180;54562;47.620;18.786;2022-08-20T11:04:11;98143.20;;;20.00
67758;BMP180;54562;47.620;18.786;2022-08-20T11:07:26;98151.00;;;20.10
67758;BMP180;54562;47.620;18.786;2022-08-20T11:10:55;98147.40;;;20.20
67758;BMP180;54562;47.620;18.786;2022-08-20T11:14:06;98147.00;;;20.20
67758;BMP180;54562;47.620;18.786;2022-08-20T11:17:19;98149.20;;;20.28
67758;BMP180;54562;47.620;18.786;2022-08-20T11:20:28;98159.00;;;20.30
67758;BMP180;54562;47.620;18.786;2022-08-20T11:23:35;98153.80;;;20.36
67758;BMP180;54562;47.620;18.786;2022-08-20T11:26:44;98156.60;;;20.40
67758;BMP180;54562;47.620;18.786;2022-08-20T11:29:54;98158.00;;;20.40
67758;BMP180;54562;47.620;18.786;2022-08-20T11:33:03;98150.00;;;20.48
67758;BMP180;54562;47.620;18.786;2022-08-20T11:36:11;98155.60;;;20.50
67758;BMP180;54562;47.620;18.786;2022-08-20T11:39:19;98148.60;;;20.60
67758;BMP180;54562;47.620;18.786;2022-08-20T11:42:27;98142.20;;;21.12
67758;BMP180;54562;47.620;18.786;2022-08-20T11:45:36;98142.80;;;21.66
67758;BMP180;54562;47.620;18.786;2022-08-20T11:48:44;98140.00;;;22.10
67758;BMP180;54562;47.620;18.786;2022-08-20T11:51:56;98135.00;;;22.50
67758;BMP180;54562;47.620;18.786;2022-08-20T11:55:06;98133.00;;;22.70
67758;BMP180;54562;47.620;18.786;2022-08-20T11:58:14;98134.40;;;22.90
67758;BMP180;54562;47.620;18.786;2022-08-20T12:01:22;98133.00;;;23.00
67758;BMP180;54562;47.620;18.786;2022-08-20T12:04:30;98141.80;;;23.00
67758;BMP180;54562;47.620;18.786;2022-08-20T12:07:41;98136.80;;;22.88
67758;BMP180;54562;47.620;18.786;2022-08-20T12:10:52;98121.80;;;22.72
67758;BMP180;54562;47.620;18.786;2022-08-20T12:13:59;98113.20;;;22.54
67758;BMP180;54562;47.620;18.786;2022-08-20T12:17:13;98107.60;;;22.40
67758;BMP180;54562;47.620;18.786;2022-08-20T12:20:23;98100.20;;;22.30
67758;BMP180;54562;47.620;18.786;2022-08-20T12:23:31;98089.60;;;22.20
67758;BMP180;54562;47.620;18.786;2022-08-20T12:26:39;98081.00;;;22.10
67758;BMP180;54562;47.620;18.786;2022-08-20T12:29:49;98081.80;;;22.10
67758;BMP180;54562;47.620;18.786;2022-08-20T12:32:58;98084.80;;;22.10
67758;BMP180;54562;47.620;18.786;2022-08-20T12:36:07;98077.20;;;22.10
67758;BMP180;54562;47.620;18.786;2022-08-20T12:39:16;98073.40;;;22.00
67758;BMP180;54562;47.620;18.786;2022-08-20T12:42:26;98063.80;;;22.00
67758;BMP180;54562;47.620;18.786;2022-08-20T12:45:36;98069.40;;;22.00
67758;BMP180;54562;47.620;18.786;2022-08-20T12:48:44;98063.20;;;22.00
67758;BMP180;54562;47.620;18.786;2022-08-20T12:51:52;98051.20;;;22.00
67758;BMP180;54562;47.620;18.786;2022-08-20T12:58:36;98030.60;;;22.00
67758;BMP180;54562;47.620;18.786;2022-08-20T13:01:51;98029.40;;;22.00
67758;BMP180;54562;47.620;18.786;2022-08-20T13:08:12;98022.20;;;21.90
67758;BMP180;54562;47.620;18.786;2022-08-20T13:11:20;98016.00;;;21.90
67758;BMP180;54562;47.620;18.786;2022-08-20T13:14:28;98014.80;;;21.90
67758;BMP180;54562;47.620;18.786;2022-08-20T13:17:36;98016.20;;;21.90
67758;BMP180;54562;47.620;18.786;2022-08-20T13:20:45;98021.80;;;21.80
67758;BMP180;54562;47.620;18.786;2022-08-20T13:23:53;98020.60;;;21.80
67758;BMP180;54562;47.620;18.786;2022-08-20T13:27:10;98019.20;;;21.80
67758;BMP180;54562;47.620;18.786;2022-08-20T13:30:21;98015.80;;;21.80
67758;BMP180;54562;47.620;18.786;2022-08-20T13:33:29;98011.20;;;21.80
67758;BMP180;54562;47.620;18.786;2022-08-20T13:36:38;98013.80;;;21.72
67758;BMP180;54562;47.620;18.786;2022-08-20T13:39:47;98012.20;;;21.70
67758;BMP180;54562;47.620;18.786;2022-08-20T13:42:55;98002.00;;;21.70
67758;BMP180;54562;47.620;18.786;2022-08-20T13:46:03;98006.20;;;21.70
67758;BMP180;54562;47.620;18.786;2022-08-20T13:49:12;98003.60;;;21.70
67758;BMP180;54562;47.620;18.786;2022-08-20T13:52:20;98002.60;;;21.70
67758;BMP180;54562;47.620;18.786;2022-08-20T13:55:30;97997.20;;;21.70
67758;BMP180;54562;47.620;18.786;2022-08-20T13:58:39;98002.00;;;21.74
67758;BMP180;54562;47.620;18.786;2022-08-20T14:01:47;98006.80;;;21.80
67758;BMP180;54562;47.620;18.786;2022-08-20T14:04:55;98015.00;;;21.80
67758;BMP180;54562;47.620;18.786;2022-08-20T14:08:12;98026.60;;;21.80
67758;BMP180;54562;47.620;18.786;2022-08-20T14:11:20;98028.00;;;21.80
67758;BMP180;54562;47.620;18.786;2022-08-20T14:14:29;98029.80;;;21.80
67758;BMP180;54562;47.620;18.786;2022-08-20T14:17:39;98035.80;;;21.76
67758;BMP180;54562;47.620;18.786;2022-08-20T14:20:48;98041.20;;;21.70
67758;BMP180;54562;47.620;18.786;2022-08-20T14:23:57;98044.40;;;21.70
67758;BMP180;54562;47.620;18.786;2022-08-20T14:27:08;98045.40;;;21.70
67758;BMP180;54562;47.620;18.786;2022-08-20T14:30:19;98035.40;;;21.70
67758;BMP180;54562;47.620;18.786;2022-08-20T14:33:28;98019.40;;;21.70
67758;BMP180;54562;47.620;18.786;2022-08-20T14:36:36;97999.60;;;21.70
67758;BMP180;54562;47.620;18.786;2022-08-20T14:39:46;97993.20;;;21.60
67758;BMP180;54562;47.620;18.786;2022-08-20T14:42:56;97989.00;;;21.60
67758;BMP180;54562;47.620;18.786;2022-08-20T14:46:05;97991.40;;;21.60
67758;BMP180;54562;47.620;18.786;2022-08-20T14:49:12;97990.80;;;21.70
67758;BMP180;54562;47.620;18.786;2022-08-20T14:52:22;98002.80;;;21.70
67758;BMP180;54562;47.620;18.786;2022-08-20T14:55:36;98005.80;;;21.70
67758;BMP180;54562;47.620;18.786;2022-08-20T14:58:44;98008.40;;;21.70
67758;BMP180;54562;47.620;18.786;2022-08-20T15:01:53;98009.20;;;21.70
67758;BMP180;54562;47.620;18.786;2022-08-20T15:05:02;98005.40;;;21.70
67758;BMP180;54562;47.620;18.786;2022-08-20T15:08:12;98000.80;;;21.64
67758;BMP180;54562;47.620;18.786;2022-08-20T15:11:21;98001.40;;;21.60
67758;BMP180;54562;47.620;18.786;2022-08-20T15:18:42;98013.80;;;21.60
67758;BMP180;54562;47.620;18.786;2022-08-20T15:25:00;98026.40;;;21.60
67758;BMP180;54562;47.620;18.786;2022-08-20T15:28:09;98035.80;;;21.60
67758;BMP180;54562;47.620;18.786;2022-08-20T15:31:16;98045.20;;;21.60
67758;BMP180;54562;47.620;18.786;2022-08-20T15:34:24;98042.20;;;21.60
67758;BMP180;54562;47.620;18.786;2022-08-20T15:37:32;98046.60;;;21.60
67758;BMP180;54562;47.620;18.786;2022-08-20T15:40:40;98038.80;;;21.50
67758;BMP180;54562;47.620;18.786;2022-08-20T15:43:48;98033.20;;;21.50
67758;BMP180;54562;47.620;18.786;2022-08-20T15:46:56;98033.20;;;21.50
67758;BMP180;54562;47.620;18.786;2022-08-20T15:50:32;98030.00;;;21.40
67758;BMP180;54562;47.620;18.786;2022-08-20T15:53:51;98024.00;;;21.40
67758;BMP180;54562;47.620;18.786;2022-08-20T15:57:02;98024.80;;;21.40
67758;BMP180;54562;47.620;18.786;2022-08-20T16:00:18;98023.80;;;21.30
67758;BMP180;54562;47.620;18.786;2022-08-20T16:03:52;98031.40;;;21.30
67758;BMP180;54562;47.620;18.786;2022-08-20T16:07:16;98035.00;;;21.30
67758;BMP180;54562;47.620;18.786;2022-08-20T16:10:35;98032.80;;;21.24
67758;BMP180;54562;47.620;18.786;2022-08-20T16:13:52;98037.60;;;21.20
67758;BMP180;54562;47.620;18.786;2022-08-20T16:17:08;98038.80;;;21.20
67758;BMP180;54562;47.620;18.786;2022-08-20T16:20:24;98038.60;;;21.18
67758;BMP180;54562;47.620;18.786;2022-08-20T16:23:43;98039.60;;;21.10
67758;BMP180;54562;47.620;18.786;2022-08-20T16:27:08;98043.60;;;21.10
67758;BMP180;54562;47.620;18.786;2022-08-20T16:30:27;98049.00;;;21.10
67758;BMP180;54562;47.620;18.786;2022-08-20T16:33:47;98046.00;;;21.10
67758;BMP180;54562;47.620;18.786;2022-08-20T16:37:14;98039.60;;;21.10
67758;BMP180;54562;47.620;18.786;2022-08-20T16:40:32;98037.60;;;21.10
67758;BMP180;54562;47.620;18.786;2022-08-20T16:43:51;98039.80;;;21.10
67758;BMP180;54562;47.620;18.786;2022-08-20T16:47:02;98045.20;;;21.10
67758;BMP180;54562;47.620;18.786;2022-08-20T16:50:24;98047.00;;;21.10
67758;BMP180;54562;47.620;18.786;2022-08-20T16:53:35;98043.80;;;21.10
67758;BMP180;54562;47.620;18.786;2022-08-20T16:56:46;98040.60;;;21.10
67758;BMP180;54562;47.620;18.786;2022-08-20T17:00:07;98045.20;;;21.10
67758;BMP180;54562;47.620;18.786;2022-08-20T17:03:29;98053.60;;;21.10
67758;BMP180;54562;47.620;18.786;2022-08-20T17:06:50;98060.60;;;21.08
67758;BMP180;54562;47.620;18.786;2022-08-20T17:10:16;98061.00;;;21.10
67758;BMP180;54562;47.620;18.786;2022-08-20T17:13:31;98063.80;;;21.10
67758;BMP180;54562;47.620;18.786;2022-08-20T17:16:44;98063.60;;;21.10
67758;BMP180;54562;47.620;18.786;2022-08-20T17:20:03;98057.40;;;21.04
67758;BMP180;54562;47.620;18.786;2022-08-20T17:23:15;98054.00;;;21.00
67758;BMP180;54562;47.620;18.786;2022-08-20T17:26:30;98052.80;;;21.00
67758;BMP180;54562;47.620;18.786;2022-08-20T17:29:54;98049.60;;;21.00
67758;BMP180;54562;47.620;18.786;2022-08-20T17:33:06;98051.80;;;21.00
67758;BMP180;54562;47.620;18.786;2022-08-20T17:36:22;98044.40;;;20.90
67758;BMP180;54562;47.620;18.786;2022-08-20T17:39:32;98037.20;;;20.90
67758;BMP180;54562;47.620;18.786;2022-08-20T17:42:51;98028.80;;;20.90
67758;BMP180;54562;47.620;18.786;2022-08-20T17:46:08;98017.80;;;20.80
67758;BMP180;54562;47.620;18.786;2022-08-20T17:49:29;98029.60;;;20.80
67758;BMP180;54562;47.620;18.786;2022-08-20T17:52:44;98034.80;;;20.80
67758;BMP180;54562;47.620;18.786;2022-08-20T17:55:57;98047.20;;;20.70
67758;BMP180;54562;47.620;18.786;2022-08-20T17:59:13;98048.80;;;20.70
67758;BMP180;54562;47.620;18.786;2022-08-20T18:02:42;98048.00;;;20.70
67758;BMP180;54562;47.620;18.786;2022-08-20T18:05:58;98049.40;;;20.60
67758;BMP180;54562;47.620;18.786;2022-08-20T18:09:16;98051.80;;;20.60
67758;BMP180;54562;47.620;18.786;2022-08-20T18:12:38;98056.60;;;20.52
67758;BMP180;54562;47.620;18.786;2022-08-20T18:15:56;98059.20;;;20.50
67758;BMP180;54562;47.620;18.786;2022-08-20T18:19:17;98061.20;;;20.40
67758;BMP180;54562;47.620;18.786;2022-08-20T18:22:33;98061.80;;;20.40
67758;BMP180;54562;47.620;18.786;2022-08-20T18:25:48;98065.40;;;20.30
67758;BMP180;54562;47.620;18.786;2022-08-20T18:29:06;98062.60;;;20.30
67758;BMP180;54562;47.620;18.786;2022-08-20T18:32:37;98063.00;;;20.30
67758;BMP180;54562;47.620;18.786;2022-08-20T18:35:45;98061.60;;;20.24
67758;BMP180;54562;47.620;18.786;2022-08-20T18:39:03;98047.60;;;20.20
67758;BMP180;54562;47.620;18.786;2022-08-20T18:42:27;98040.20;;;20.14
67758;BMP180;54562;47.620;18.786;2022-08-20T18:45:37;98040.60;;;20.10
67758;BMP180;54562;47.620;18.786;2022-08-20T18:48:59;98037.40;;;20.02
67758;BMP180;54562;47.620;18.786;2022-08-20T18:52:15;98043.40;;;20.00
67758;BMP180;54562;47.620;18.786;2022-08-20T18:55:35;98046.60;;;20.00
67758;BMP180;54562;47.620;18.786;2022-08-20T18:58:58;98060.00;;;20.00
67758;BMP180;54562;47.620;18.786;2022-08-20T19:02:23;98062.80;;;19.90
67758;BMP180;54562;47.620;18.786;2022-08-20T19:05:45;98056.60;;;19.90
67758;BMP180;54562;47.620;18.786;2022-08-20T19:09:08;98052.60;;;19.84
67758;BMP180;54562;47.620;18.786;2022-08-20T19:16:28;98061.20;;;19.76
67758;BMP180;54562;47.620;18.786;2022-08-20T19:19:40;98063.60;;;19.70
67758;BMP180;54562;47.620;18.786;2022-08-20T19:22:50;98066.80;;;19.70
67758;BMP180;54562;47.620;18.786;2022-08-20T19:26:05;98061.80;;;19.62
67758;BMP180;54562;47.620;18.786;2022-08-20T19:29:34;98060.00;;;19.60
67758;BMP180;54562;47.620;18.786;2022-08-20T19:32:52;98058.60;;;19.60
67758;BMP180;54562;47.620;18.786;2022-08-20T19:36:14;98058.00;;;19.50
67758;BMP180;54562;47.620;18.786;2022-08-20T19:39:27;98051.60;;;19.50
67758;BMP180;54562;47.620;18.786;2022-08-20T19:42:43;98043.20;;;19.50
67758;BMP180;54562;47.620;18.786;2022-08-20T19:45:53;98040.20;;;19.50
67758;BMP180;54562;47.620;18.786;2022-08-20T19:49:26;98031.60;;;19.48
67758;BMP180;54562;47.620;18.786;2022-08-20T19:52:47;98033.80;;;19.40
67758;BMP180;54562;47.620;18.786;2022-08-20T19:56:03;98034.80;;;19.40
67758;BMP180;54562;47.620;18.786;2022-08-20T19:59:20;98035.00;;;19.38
67758;BMP180;54562;47.620;18.786;2022-08-20T20:02:31;98041.60;;;19.30
67758;BMP180;54562;47.620;18.786;2022-08-20T20:05:53;98053.20;;;19.30
67758;BMP180;54562;47.620;18.786;2022-08-20T20:09:05;98054.80;;;19.30
67758;BMP180;54562;47.620;18.786;2022-08-20T20:12:17;98057.40;;;19.34
67758;BMP180;54562;47.620;18.786;2022-08-20T20:15:29;98053.20;;;19.38
67758;BMP180;54562;47.620;18.786;2022-08-20T20:18:41;98044.40;;;19.40
67758;BMP180;54562;47.620;18.786;2022-08-20T20:22:06;98041.00;;;19.40
67758;BMP180;54562;47.620;18.786;2022-08-20T20:25:41;98033.60;;;19.40
67758;BMP180;54562;47.620;18.786;2022-08-20T20:29:00;98031.40;;;19.30
67758;BMP180;54562;47.620;18.786;2022-08-20T20:32:19;98029.00;;;19.30
67758;BMP180;54562;47.620;18.786;2022-08-20T20:35:32;98029.60;;;19.30
67758;BMP180;54562;47.620;18.786;2022-08-20T20:38:53;98032.40;;;19.20
67758;BMP180;54562;47.620;18.786;2022-08-20T20:42:05;98036.00;;;19.20
67758;BMP180;54562;47.620;18.786;2022-08-20T20:45:20;98027.00;;;19.20
67758;BMP180;54562;47.620;18.786;2022-08-20T20:48:40;98017.60;;;19.10
67758;BMP180;54562;47.620;18.786;2022-08-20T20:52:00;98013.00;;;19.10
67758;BMP180;54562;47.620;18.786;2022-08-20T20:55:20;98015.40;;;19.08
67758;BMP180;54562;47.620;18.786;2022-08-20T20:58:30;98022.40;;;19.00
67758;BMP180;54562;47.620;18.786;2022-08-20T21:01:39;98024.00;;;19.00
67758;BMP180;54562;47.620;18.786;2022-08-20T21:04:55;98026.60;;;19.00
67758;BMP180;54562;47.620;18.786;2022-08-20T21:08:06;98022.80;;;19.00
67758;BMP180;54562;47.620;18.786;2022-08-20T21:11:15;98023.80;;;18.94
67758;BMP180;54562;47.620;18.786;2022-08-20T21:14:25;98022.20;;;18.90
67758;BMP180;54562;47.620;18.786;2022-08-20T21:17:34;98024.40;;;18.90
67758;BMP180;54562;47.620;18.786;2022-08-20T21:20:42;98018.00;;;18.90
67758;BMP180;54562;47.620;18.786;2022-08-20T21:23:53;98017.60;;;18.86
67758;BMP180;54562;47.620;18.786;2022-08-20T21:27:01;98030.40;;;18.80
67758;BMP180;54562;47.620;18.786;2022-08-20T21:30:11;98029.20;;;18.80
67758;BMP180;54562;47.620;18.786;2022-08-20T21:33:20;98032.20;;;18.80
67758;BMP180;54562;47.620;18.786;2022-08-20T21:36:28;98030.60;;;18.74
67758;BMP180;54562;47.620;18.786;2022-08-20T21:39:36;98035.20;;;18.72
67758;BMP180;54562;47.620;18.786;2022-08-20T21:42:45;98040.80;;;18.70
67758;BMP180;54562;47.620;18.786;2022-08-20T21:45:54;98039.80;;;18.70
67758;BMP180;54562;47.620;18.786;2022-08-20T21:49:02;98037.20;;;18.70
67758;BMP180;54562;47.620;18.786;2022-08-20T21:52:10;98037.80;;;18.70
67758;BMP180;54562;47.620;18.786;2022-08-20T21:55:18;98039.40;;;18.70
67758;BMP180;54562;47.620;18.786;2022-08-20T21:58:26;98026.00;;;18.70
67758;BMP180;54562;47.620;18.786;2022-08-20T22:01:35;98021.40;;;18.60
67758;BMP180;54562;47.620;18.786;2022-08-20T22:04:44;98020.60;;;18.60
67758;BMP180;54562;47.620;18.786;2022-08-20T22:07:52;98024.20;;;18.60
67758;BMP180;54562;47.620;18.786;2022-08-20T22:11:01;98026.00;;;18.60
67758;BMP180;54562;47.620;18.786;2022-08-20T22:14:12;98016.60;;;18.60
67758;BMP180;54562;47.620;18.786;2022-08-20T22:17:22;98015.00;;;18.60
67758;BMP180;54562;47.620;18.786;2022-08-20T22:20:31;98013.80;;;18.60
67758;BMP180;54562;47.620;18.786;2022-08-20T22:23:39;98009.00;;;18.54
67758;BMP180;54562;47.620;18.786;2022-08-20T22:26:47;98011.00;;;18.50
67758;BMP180;54562;47.620;18.786;2022-08-20T22:29:55;98009.20;;;18.50
67758;BMP180;54562;47.620;18.786;2022-08-20T22:33:10;98005.80;;;18.50
67758;BMP180;54562;47.620;18.786;2022-08-20T22:36:20;98008.60;;;18.50
67758;BMP180;54562;47.620;18.786;2022-08-20T22:39:30;98021.80;;;18.48
67758;BMP180;54562;47.620;18.786;2022-08-20T22:42:38;98020.00;;;18.42
67758;BMP180;54562;47.620;18.786;2022-08-20T22:45:50;98021.40;;;18.44
67758;BMP180;54562;47.620;18.786;2022-08-20T22:48:59;98019.80;;;18.40
67758;BMP180;54562;47.620;18.786;2022-08-20T22:52:08;98017.60;;;18.40
67758;BMP180;54562;47.620;18.786;2022-08-20T22:55:17;98021.40;;;18.40
67758;BMP180;54562;47.620;18.786;2022-08-20T22:58:26;98015.00;;;18.40
67758;BMP180;54562;47.620;18.786;2022-08-20T23:01:37;98012.60;;;18.40
67758;BMP180;54562;47.620;18.786;2022-08-20T23:04:45;98008.40;;;18.40
67758;BMP180;54562;47.620;18.786;2022-08-20T23:07:58;98000.00;;;18.40
67758;BMP180;54562;47.620;18.786;2022-08-20T23:11:07;98002.00;;;18.40
67758;BMP180;54562;47.620;18.786;2022-08-20T23:14:15;97996.60;;;18.40
67758;BMP180;54562;47.620;18.786;2022-08-20T23:17:33;97991.80;;;18.40
67758;BMP180;54562;47.620;18.786;2022-08-20T23:20:42;97984.80;;;18.40
67758;BMP180;54562;47.620;18.786;2022-08-20T23:23:52;97975.20;;;18.30
67758;BMP180;54562;47.620;18.786;2022-08-20T23:27:00;97977.40;;;18.30
67758;BMP180;54562;47.620;18.786;2022-08-20T23:30:10;97980.00;;;18.30
67758;BMP180;54562;47.620;18.786;2022-08-20T23:33:19;97981.20;;;18.30
67758;BMP180;54562;47.620;18.786;2022-08-20T23:36:27;97981.00;;;18.30
67758;BMP180;54562;47.620;18.786;2022-08-20T23:39:35;97982.20;;;18.20
67758;BMP180;54562;47.620;18.786;2022-08-20T23:42:44;97976.20;;;18.20
67758;BMP180;54562;47.620;18.786;2022-08-20T23:46:00;97973.40;;;18.20
67758;BMP180;54562;47.620;18.786;2022-08-20T23:49:09;97970.00;;;18.20
67758;BMP180;54562;47.620;18.786;2022-08-20T23:52:18;97973.20;;;18.10
67758;BMP180;54562;47.620;18.786;2022-08-20T23:55:26;97970.20;;;18.10
67758;BMP180;54562;47.620;18.786;2022-08-20T23:58:36;97965.00;;;18.10
